Avia Terai, Argentina
Current Conditions -  °F | °C
As of 6:00 PM on Friday 24 Oct 2014 (Local Time) from SARC Reporting Station
Clear Clear  
Wind Chill: 90°   Ceiling: Unl
Heat Index: 90°   Visibility: 5mi
Dew Point: 59°   Wind: 14mph
Humidity: 36%   Direction: 200°SSW
Pressure: 29.8"   Gusts: NA
Location:  26.7°S, 60.73°W
Report Text: SARC 242100Z 20012KT 160V230 8000 NSC32/15 Q1009
Loading
Personal Weather Stations






























Interactive Weather Map
Tropical Storm Tracking
New forecast layout! Learn more

10-Day Weather Forecast

Advertisements
Track Severe Weather on mobile